createdAt,value
2023-03-28T00:00:47.379Z,81.83
2023-03-28T00:01:47.393Z,82.00
2023-03-28T00:02:47.380Z,80.85
2023-03-28T00:03:47.412Z,80.54
2023-03-28T00:04:47.318Z,80.96
2023-03-28T00:05:47.419Z,80.75
2023-03-28T00:06:47.316Z,80.92
2023-03-28T00:07:47.452Z,81.16
2023-03-28T00:08:47.349Z,80.96
2023-03-28T00:09:47.273Z,81.59
2023-03-28T00:10:47.290Z,81.38
2023-03-28T00:11:47.247Z,80.82
2023-03-28T00:12:47.281Z,80.85
2023-03-28T00:13:47.269Z,80.61
2023-03-28T00:14:47.945Z,80.61
2023-03-28T00:15:47.231Z,80.92
2023-03-28T00:16:47.230Z,80.33
2023-03-28T00:17:47.248Z,80.82
2023-03-28T00:18:47.211Z,80.82
2023-03-28T00:19:47.219Z,80.61
2023-03-28T00:20:47.166Z,80.82
2023-03-28T00:21:47.226Z,81.16
2023-03-28T00:22:47.152Z,81.06
2023-03-28T00:23:47.149Z,80.96
2023-03-28T00:24:47.129Z,81.48
2023-03-28T00:25:47.131Z,81.06
2023-03-28T00:26:47.179Z,81.38
2023-03-28T00:27:47.089Z,81.06
2023-03-28T00:28:47.088Z,81.48
2023-03-28T00:29:47.119Z,80.96
2023-03-28T00:30:47.068Z,81.34
2023-03-28T00:31:47.111Z,81.38
2023-03-28T00:32:47.048Z,81.76
2023-03-28T00:33:47.091Z,81.59
2023-03-28T00:34:47.030Z,81.38
2023-03-28T00:35:47.954Z,81.48
2023-03-28T00:36:47.062Z,81.79
2023-03-28T00:37:46.996Z,81.48
2023-03-28T00:38:47.058Z,81.38
2023-03-28T00:39:47.007Z,81.48
2023-03-28T00:40:47.035Z,81.59
2023-03-28T00:41:47.040Z,81.34
2023-03-28T00:42:46.993Z,81.45
2023-03-28T00:43:46.983Z,80.96
2023-03-28T00:44:46.955Z,81.13
2023-03-28T00:46:02.507Z,81.23
2023-03-28T00:46:48.023Z,81.02
2023-03-28T00:47:47.559Z,81.02
2023-03-28T00:48:46.919Z,81.55
2023-03-28T00:49:46.923Z,81.59
2023-03-28T00:50:46.974Z,81.90
2023-03-28T00:51:47.007Z,81.55
2023-03-28T00:52:46.863Z,81.59
2023-03-28T00:53:46.852Z,82.10
2023-03-28T00:54:46.896Z,82.00
2023-03-28T00:55:46.817Z,81.38
2023-03-28T00:56:46.853Z,81.90
2023-03-28T00:57:46.828Z,82.00
2023-03-28T00:58:46.822Z,81.38
2023-03-28T00:59:46.815Z,81.48
2023-03-28T01:00:46.843Z,81.90
2023-03-28T01:01:46.886Z,81.38
2023-03-28T01:02:46.848Z,81.02
2023-03-28T01:03:46.820Z,81.34
2023-03-28T01:04:46.758Z,81.59
2023-03-28T01:05:47.412Z,81.38
2023-03-28T01:06:46.715Z,80.96
2023-03-28T01:07:46.732Z,81.90
2023-03-28T01:08:46.707Z,81.79
2023-03-28T01:09:46.747Z,81.27
2023-03-28T01:10:46.763Z,80.85
2023-03-28T01:11:46.693Z,81.59
2023-03-28T01:12:46.652Z,81.59
2023-03-28T01:13:47.672Z,81.90
2023-03-28T01:14:46.689Z,81.06
2023-03-28T01:15:46.665Z,81.48
2023-03-28T01:16:46.641Z,81.79
2023-03-28T01:17:46.668Z,81.38
2023-03-28T01:18:46.626Z,81.59
2023-03-28T01:19:46.594Z,81.59
2023-03-28T01:20:46.671Z,81.90
2023-03-28T01:21:46.842Z,81.59
2023-03-28T01:22:57.270Z,82.00
2023-03-28T01:23:47.634Z,81.59
2023-03-28T01:24:46.564Z,81.69
2023-03-28T01:25:46.548Z,81.69
2023-03-28T01:26:46.548Z,81.69
2023-03-28T01:27:46.522Z,81.69
2023-03-28T01:28:46.597Z,81.79
2023-03-28T01:29:46.516Z,81.79
2023-03-28T01:30:46.475Z,81.69
2023-03-28T01:31:47.137Z,81.38
2023-03-28T01:32:46.466Z,81.69
2023-03-28T01:33:46.508Z,82.63
2023-03-28T01:34:46.477Z,82.53
2023-03-28T01:35:46.506Z,82.84
2023-03-28T01:36:46.438Z,82.21
2023-03-28T01:37:46.461Z,81.34
2023-03-28T01:38:46.410Z,81.76
2023-03-28T01:39:46.464Z,81.55
2023-03-28T01:40:46.385Z,81.38
2023-03-28T01:41:46.370Z,81.38
2023-03-28T01:42:46.367Z,81.69
2023-03-28T01:43:46.363Z,81.69
2023-03-28T01:44:46.411Z,81.48
2023-03-28T01:45:46.374Z,82.21
2023-03-28T01:46:46.350Z,82.53
2023-03-28T01:47:46.403Z,82.84
2023-03-28T01:48:46.320Z,82.42
2023-03-28T01:49:46.306Z,82.31
2023-03-28T01:50:46.317Z,82.21
2023-03-28T01:51:46.299Z,81.90
2023-03-28T01:52:46.263Z,82.63
2023-03-28T01:53:46.256Z,82.63
2023-03-28T01:54:46.261Z,82.73
2023-03-28T01:55:46.255Z,82.53
2023-03-28T01:56:46.272Z,83.18
2023-03-28T01:57:46.439Z,83.18
2023-03-28T01:58:46.228Z,83.08
2023-03-28T01:59:46.222Z,83.81
2023-03-28T02:00:46.314Z,83.36
2023-03-28T02:01:46.177Z,83.50
2023-03-28T02:02:46.173Z,83.04
2023-03-28T02:03:46.186Z,83.25
2023-03-28T02:04:46.170Z,82.98
2023-03-28T02:05:46.138Z,83.25
2023-03-28T02:06:46.118Z,83.61
2023-03-28T02:07:46.126Z,83.36
2023-03-28T02:08:46.109Z,82.94
2023-03-28T02:09:46.189Z,82.84
2023-03-28T02:10:46.092Z,82.84
2023-03-28T02:11:46.118Z,82.84
2023-03-28T02:12:46.072Z,82.84
2023-03-28T02:13:46.079Z,82.28
2023-03-28T02:14:46.078Z,82.21
2023-03-28T02:15:46.028Z,82.28
2023-03-28T02:16:46.215Z,81.59
2023-03-28T02:17:46.075Z,81.76
2023-03-28T02:18:46.027Z,81.55
2023-03-28T02:19:46.065Z,81.45
2023-03-28T02:20:45.986Z,81.72
2023-03-28T02:21:46.053Z,81.72
2023-03-28T02:22:45.992Z,81.55
2023-03-28T02:23:46.002Z,81.96
2023-03-28T02:24:45.978Z,81.45
2023-03-28T02:25:45.992Z,81.76
2023-03-28T02:26:47.763Z,81.65
2023-03-28T02:27:45.924Z,81.48
2023-03-28T02:28:45.932Z,82.42
2023-03-28T02:29:45.950Z,82.73
2023-03-28T02:30:45.919Z,82.10
2023-03-28T02:31:45.877Z,82.63
2023-03-28T02:32:45.942Z,83.04
2023-03-28T02:33:45.881Z,84.02
2023-03-28T02:34:45.901Z,84.02
2023-03-28T02:35:45.912Z,83.50
2023-03-28T02:36:45.860Z,84.65
2023-03-28T02:37:45.832Z,85.06
2023-03-28T02:38:45.847Z,85.06
2023-03-28T02:39:45.816Z,84.75
2023-03-28T02:40:45.789Z,85.06
2023-03-28T02:41:45.815Z,84.65
2023-03-28T02:42:45.763Z,84.86
2023-03-28T02:43:45.787Z,84.44
2023-03-28T02:44:45.788Z,84.96
2023-03-28T02:45:45.776Z,84.86
2023-03-28T02:46:45.734Z,84.55
2023-03-28T02:47:45.804Z,84.44
2023-03-28T02:48:45.763Z,84.61
2023-03-28T02:49:50.351Z,84.75
2023-03-28T02:50:47.845Z,84.96
2023-03-28T02:51:45.696Z,85.13
2023-03-28T02:52:45.673Z,85.06
2023-03-28T02:53:45.692Z,84.92
2023-03-28T02:54:45.682Z,83.98
2023-03-28T02:55:45.693Z,83.53
2023-03-28T02:56:45.654Z,83.47
2023-03-28T02:57:45.673Z,83.11
2023-03-28T02:58:45.631Z,83.42
2023-03-28T02:59:45.633Z,83.22
2023-03-28T03:00:45.744Z,83.42
2023-03-28T03:01:45.643Z,83.11
2023-03-28T03:02:45.597Z,83.01
2023-03-28T03:03:45.635Z,82.97
2023-03-28T03:04:45.568Z,82.90
2023-03-28T03:05:45.559Z,82.34
2023-03-28T03:06:45.591Z,82.59
2023-03-28T03:07:45.666Z,83.11
2023-03-28T03:08:45.549Z,83.01
2023-03-28T03:09:45.900Z,82.80
2023-03-28T03:10:46.536Z,82.80
2023-03-28T03:11:45.568Z,83.11
2023-03-28T03:12:45.619Z,83.42
2023-03-28T03:13:45.478Z,83.11
2023-03-28T03:14:45.539Z,83.22
2023-03-28T03:15:45.538Z,83.36
2023-03-28T03:16:45.450Z,83.98
2023-03-28T03:17:45.520Z,83.98
2023-03-28T03:18:45.448Z,84.09
2023-03-28T03:19:45.553Z,83.88
2023-03-28T03:20:45.425Z,83.88
2023-03-28T03:21:45.614Z,83.74
2023-03-28T03:22:45.412Z,83.74
2023-03-28T03:23:45.426Z,83.74
2023-03-28T03:24:45.376Z,83.95
2023-03-28T03:25:45.441Z,83.74
2023-03-28T03:26:45.431Z,83.98
2023-03-28T03:27:45.350Z,83.95
2023-03-28T03:28:45.316Z,84.16
2023-03-28T03:29:45.353Z,84.16
2023-03-28T03:30:45.352Z,84.16
2023-03-28T03:31:45.390Z,83.84
2023-03-28T03:32:45.350Z,83.63
2023-03-28T03:33:45.306Z,83.84
2023-03-28T03:34:45.336Z,84.16
2023-03-28T03:35:45.286Z,83.53
2023-03-28T03:36:45.253Z,83.63
2023-03-28T03:37:45.263Z,83.11
2023-03-28T03:38:45.262Z,83.22
2023-03-28T03:39:45.261Z,83.47
2023-03-28T03:40:45.255Z,83.36
2023-03-28T03:41:45.237Z,83.57
2023-03-28T03:42:46.012Z,83.57
2023-03-28T03:43:47.164Z,83.67
2023-03-28T03:44:46.220Z,83.98
2023-03-28T03:45:45.241Z,84.09
2023-03-28T03:46:45.243Z,83.98
2023-03-28T03:47:45.253Z,83.36
2023-03-28T03:48:50.048Z,83.47
2023-03-28T03:49:46.174Z,84.02
2023-03-28T03:50:45.177Z,84.23
2023-03-28T03:51:45.149Z,84.34
2023-03-28T03:52:45.136Z,84.75
2023-03-28T03:53:45.121Z,84.75
2023-03-28T03:54:45.106Z,84.65
2023-03-28T03:55:45.102Z,85.31
2023-03-28T03:56:45.114Z,85.38
2023-03-28T03:57:45.079Z,85.21
2023-03-28T03:58:45.063Z,84.89
2023-03-28T03:59:45.053Z,85.21
2023-03-28T04:00:45.015Z,85.31
2023-03-28T04:01:45.052Z,85.11
2023-03-28T04:02:45.090Z,85.21
2023-03-28T04:03:45.082Z,85.11
2023-03-28T04:04:45.015Z,85.11
2023-03-28T04:05:45.037Z,85.21
2023-03-28T04:06:45.005Z,84.79
2023-03-28T04:07:44.992Z,85.21
2023-03-28T04:08:44.935Z,84.58
2023-03-28T04:09:45.087Z,85.31
2023-03-28T04:10:46.844Z,85.11
2023-03-28T04:11:45.006Z,85.42
2023-03-28T04:12:44.933Z,85.38
2023-03-28T04:13:44.959Z,85.38
2023-03-28T04:14:44.973Z,85.17
2023-03-28T04:15:45.003Z,85.38
2023-03-28T04:16:45.155Z,85.27
2023-03-28T04:17:44.905Z,85.06
2023-03-28T04:18:44.826Z,84.75
2023-03-28T04:19:44.876Z,84.86
2023-03-28T04:20:44.863Z,84.96
2023-03-28T04:21:44.862Z,85.17
2023-03-28T04:22:46.391Z,85.17
2023-03-28T04:23:44.857Z,85.27
2023-03-28T04:24:44.841Z,84.96
2023-03-28T04:25:44.808Z,84.61
2023-03-28T04:26:44.759Z,84.86
2023-03-28T04:27:44.815Z,84.34
2023-03-28T04:28:44.850Z,84.50
2023-03-28T04:29:44.752Z,83.40
2023-03-28T04:30:44.755Z,83.98
2023-03-28T04:31:44.782Z,83.04
2023-03-28T04:32:44.778Z,83.15
2023-03-28T04:33:44.735Z,83.04
2023-03-28T04:34:44.712Z,82.94
2023-03-28T04:35:44.790Z,83.47
2023-03-28T04:36:44.689Z,83.47
2023-03-28T04:37:44.677Z,83.25
2023-03-28T04:38:44.702Z,82.42
2023-03-28T04:39:44.644Z,83.04
2023-03-28T04:40:44.697Z,82.84
2023-03-28T04:41:44.707Z,82.94
2023-03-28T04:42:44.650Z,82.84
2023-03-28T04:43:44.622Z,81.48
2023-03-28T04:44:44.595Z,82.10
2023-03-28T04:45:44.704Z,81.48
2023-03-28T04:46:44.640Z,81.59
2023-03-28T04:47:44.605Z,81.48
2023-03-28T04:48:44.557Z,81.59
2023-03-28T04:49:44.596Z,81.69
2023-03-28T04:50:44.598Z,81.69
2023-03-28T04:51:44.526Z,81.79
2023-03-28T04:52:44.514Z,82.00
2023-03-28T04:53:44.673Z,81.38
2023-03-28T04:54:44.519Z,81.69
2023-03-28T04:55:44.571Z,81.79
2023-03-28T04:56:44.545Z,81.90
2023-03-28T04:57:44.501Z,81.69
2023-03-28T04:58:44.496Z,81.69
2023-03-28T04:59:44.469Z,81.59
2023-03-28T05:00:44.492Z,81.59
2023-03-28T05:01:44.506Z,82.10
2023-03-28T05:02:44.603Z,82.10
2023-03-28T05:03:44.452Z,81.90
2023-03-28T05:04:44.423Z,81.38
2023-03-28T05:05:44.456Z,81.38
2023-03-28T05:06:44.410Z,80.85
2023-03-28T05:07:44.454Z,81.06
2023-03-28T05:08:44.394Z,80.96
2023-03-28T05:09:44.375Z,81.16
2023-03-28T05:10:44.391Z,81.27
2023-03-28T05:11:44.367Z,80.65
2023-03-28T05:12:45.008Z,80.85
2023-03-28T05:13:44.300Z,80.85
2023-03-28T05:14:44.314Z,81.06
2023-03-28T05:15:44.326Z,80.85
2023-03-28T05:16:44.328Z,81.06
2023-03-28T05:17:44.385Z,80.89
2023-03-28T05:18:44.257Z,81.16
2023-03-28T05:19:44.337Z,80.85
2023-03-28T05:20:44.264Z,80.65
2023-03-28T05:21:44.275Z,81.21
2023-03-28T05:22:44.246Z,80.75
2023-03-28T05:23:44.231Z,80.99
2023-03-28T05:24:45.220Z,81.21
2023-03-28T05:25:44.217Z,80.89
2023-03-28T05:26:44.196Z,81.10
2023-03-28T05:27:44.170Z,81.35
2023-03-28T05:28:44.184Z,81.56
2023-03-28T05:29:44.158Z,82.60
2023-03-28T05:30:44.164Z,83.01
2023-03-28T05:31:44.201Z,83.12
2023-03-28T05:32:44.159Z,83.23
2023-03-28T05:33:45.113Z,83.50
2023-03-28T05:34:44.140Z,83.23
2023-03-28T05:35:44.145Z,83.33
2023-03-28T05:36:44.110Z,83.33
2023-03-28T05:37:46.254Z,83.64
2023-03-28T05:38:45.068Z,83.75
2023-03-28T05:39:44.044Z,83.85
2023-03-28T05:40:44.145Z,83.68
2023-03-28T05:41:44.067Z,83.37
2023-03-28T05:42:44.058Z,83.64
2023-03-28T05:43:44.030Z,83.54
2023-03-28T05:44:44.034Z,83.54
2023-03-28T05:45:44.063Z,83.54
2023-03-28T05:46:44.000Z,83.44
2023-03-28T05:47:43.999Z,83.64
2023-03-28T05:48:44.024Z,83.33
2023-03-28T05:49:45.012Z,83.23
2023-03-28T05:50:44.003Z,83.23
2023-03-28T05:51:43.988Z,82.81
2023-03-28T05:52:43.948Z,82.91
2023-03-28T05:53:43.939Z,82.60
2023-03-28T05:54:50.911Z,82.81
2023-03-28T05:55:44.959Z,82.46
2023-03-28T05:56:44.046Z,82.29
2023-03-28T05:57:43.908Z,81.56
2023-03-28T05:58:43.903Z,82.39
2023-03-28T05:59:43.880Z,83.47
2023-03-28T06:00:43.875Z,84.31
2023-03-28T06:01:43.881Z,84.20
2023-03-28T06:02:43.885Z,83.89
2023-03-28T06:03:44.466Z,84.31
2023-03-28T06:04:43.925Z,85.00
2023-03-28T06:05:43.822Z,84.83
2023-03-28T06:06:43.802Z,84.79
2023-03-28T06:07:43.803Z,84.73
2023-03-28T06:08:43.791Z,83.75
2023-03-28T06:09:43.766Z,84.06
2023-03-28T06:10:43.819Z,83.75
2023-03-28T06:11:43.795Z,83.95
2023-03-28T06:12:43.774Z,83.64
2023-03-28T06:13:43.770Z,83.54
2023-03-28T06:14:43.716Z,83.75
2023-03-28T06:15:43.708Z,84.06
2023-03-28T06:16:43.832Z,83.54
2023-03-28T06:17:43.749Z,84.58
2023-03-28T06:18:43.685Z,84.69
2023-03-28T06:37:03.387Z,83.95
2023-03-28T06:38:04.777Z,83.85
2023-03-28T06:39:04.560Z,83.85
2023-03-28T06:40:04.434Z,83.64
2023-03-28T06:41:04.381Z,84.38
2023-03-28T06:42:04.377Z,84.48
2023-03-28T06:43:04.412Z,83.44
2023-03-28T06:44:04.350Z,83.50
2023-03-28T06:45:04.450Z,84.02
2023-03-28T06:46:04.411Z,84.02
2023-03-28T06:47:04.351Z,83.50
2023-03-28T06:48:04.362Z,82.94
2023-03-28T06:49:04.315Z,83.04
2023-03-28T06:50:04.295Z,81.90
2023-03-28T06:51:04.321Z,81.65
2023-03-28T06:52:04.254Z,81.59
2023-03-28T06:53:04.294Z,81.48
2023-03-28T06:54:04.911Z,80.92
2023-03-28T06:55:04.232Z,80.99
2023-03-28T06:56:04.297Z,81.02
2023-03-28T06:57:04.289Z,81.45
2023-03-28T06:58:04.195Z,81.13
2023-03-28T06:59:04.249Z,80.26
2023-03-28T07:00:04.185Z,80.68
2023-03-28T07:01:04.236Z,80.47
2023-03-28T07:02:04.335Z,80.33
2023-03-28T07:03:04.226Z,80.33
2023-03-28T07:04:04.328Z,80.33
2023-03-28T07:05:04.153Z,79.56
2023-03-28T07:06:04.194Z,79.35
2023-03-28T07:07:04.440Z,79.18
2023-03-28T07:08:04.125Z,79.35
2023-03-28T07:09:06.166Z,78.73
2023-03-28T07:10:05.081Z,79.14
2023-03-28T07:11:04.148Z,79.14
2023-03-28T07:12:04.077Z,78.69
2023-03-28T07:13:04.091Z,78.38
2023-03-28T07:14:04.049Z,78.59
2023-03-28T07:15:04.020Z,77.65
2023-03-28T07:16:04.108Z,76.82
2023-03-28T07:17:04.052Z,76.89
2023-03-28T07:18:04.099Z,77.30
2023-03-28T07:19:04.046Z,77.37
2023-03-28T07:20:04.017Z,76.89
2023-03-28T07:21:04.632Z,76.12
2023-03-28T07:22:05.006Z,76.85
2023-03-28T07:23:03.990Z,77.69
2023-03-28T07:24:04.016Z,78.00
2023-03-28T07:25:03.940Z,77.23
2023-03-28T07:26:03.991Z,77.34
2023-03-28T07:27:14.804Z,78.58
2023-03-28T07:28:05.926Z,77.75
2023-03-28T07:29:03.943Z,76.72
2023-03-28T07:30:03.920Z,74.95
2023-03-28T07:31:03.938Z,75.12
2023-03-28T07:32:03.884Z,75.32
2023-03-28T07:33:16.693Z,76.26
2023-03-28T07:34:04.952Z,75.22
2023-03-28T07:35:03.858Z,76.78
2023-03-28T07:36:03.921Z,75.74
2023-03-28T07:37:03.851Z,76.75
2023-03-28T07:38:03.818Z,76.64
2023-03-28T07:39:03.804Z,76.64
2023-03-28T07:40:03.814Z,75.78
2023-03-28T07:41:03.825Z,75.46
2023-03-28T07:42:03.798Z,74.63
2023-03-28T07:43:03.814Z,76.40
2023-03-28T07:44:03.768Z,75.46
2023-03-28T07:45:04.367Z,74.32
2023-03-28T07:46:03.785Z,73.60
2023-03-28T07:47:04.768Z,75.05
2023-03-28T07:48:03.763Z,76.29
2023-03-28T07:49:03.703Z,74.01
2023-03-28T07:50:03.705Z,75.02
2023-03-28T07:51:03.689Z,75.46
2023-03-28T07:52:03.783Z,73.57
2023-03-28T07:53:03.683Z,72.56
2023-03-28T07:54:03.651Z,73.57
2023-03-28T07:55:03.682Z,73.98
2023-03-28T07:56:03.666Z,74.40
2023-03-28T07:57:03.705Z,74.29
2023-03-28T07:58:03.614Z,74.71
2023-03-28T07:59:03.624Z,74.08
2023-03-28T08:00:03.595Z,72.94
2023-03-28T08:01:03.581Z,71.28
2023-03-28T08:02:03.593Z,72.84
2023-03-28T08:03:03.666Z,72.94
2023-03-28T08:04:03.803Z,73.11
2023-03-28T08:05:03.590Z,72.18
2023-03-28T08:06:03.564Z,73.63
2023-03-28T08:07:03.638Z,72.70
2023-03-28T08:08:03.543Z,72.49
2023-03-28T08:09:03.505Z,72.05
2023-03-28T08:10:03.585Z,71.53
2023-03-28T08:11:03.525Z,70.73
2023-03-28T08:12:03.530Z,71.73
2023-03-28T08:13:03.531Z,71.22
2023-03-28T08:14:03.480Z,72.25
2023-03-28T08:15:03.506Z,71.32
2023-03-28T08:16:03.504Z,72.05
2023-03-28T08:17:03.497Z,71.18
2023-03-28T08:18:03.475Z,71.84
2023-03-28T08:19:10.753Z,72.22
2023-03-28T08:20:05.387Z,72.74
2023-03-28T08:21:03.844Z,72.56
2023-03-28T08:22:04.410Z,71.94
2023-03-28T08:23:03.395Z,70.56
2023-03-28T08:24:03.399Z,70.56
2023-03-28T08:25:03.382Z,70.28
2023-03-28T08:26:04.361Z,72.36
2023-03-28T08:27:03.354Z,70.56
2023-03-28T08:28:03.324Z,71.39
2023-03-28T08:29:03.375Z,69.70
2023-03-28T08:30:03.296Z,70.73
2023-03-28T08:31:03.709Z,69.70
2023-03-28T08:32:03.328Z,70.42
2023-03-28T08:33:04.349Z,69.67
2023-03-28T08:34:03.289Z,68.53
2023-03-28T08:35:03.290Z,69.56
2023-03-28T08:36:03.313Z,68.22
2023-03-28T08:37:03.250Z,67.21
2023-03-28T08:38:03.213Z,67.52
2023-03-28T08:39:03.234Z,66.80
2023-03-28T08:40:03.238Z,66.46
2023-03-28T08:41:03.390Z,68.56
2023-03-28T08:42:04.235Z,68.59
2023-03-28T08:43:03.235Z,69.73
2023-03-28T08:44:03.211Z,71.25
2023-03-28T08:45:03.223Z,70.21
2023-03-28T08:46:03.233Z,68.87
2023-03-28T08:47:03.286Z,68.43
2023-03-28T08:48:03.217Z,65.81
2023-03-28T08:49:03.129Z,66.15
2023-03-28T08:50:03.116Z,66.18
2023-03-28T08:51:03.480Z,67.49
2023-03-28T08:52:03.094Z,67.73
2023-03-28T08:53:03.095Z,66.69
2023-03-28T08:54:03.190Z,67.83
2023-03-28T08:55:03.068Z,67.63
2023-03-28T08:56:03.041Z,68.25
2023-03-28T08:57:03.147Z,68.04
2023-03-28T08:58:03.030Z,66.05
2023-03-28T08:59:03.904Z,65.84
2023-03-28T09:00:03.023Z,64.87
2023-03-28T09:01:03.414Z,65.88
2023-03-28T09:02:03.098Z,67.19
2023-03-28T09:03:03.056Z,66.64
2023-03-28T09:04:03.268Z,62.62
2023-03-28T09:05:17.721Z,64.65
2023-03-28T09:06:04.960Z,64.55
2023-03-28T09:07:02.922Z,63.31
2023-03-28T09:08:02.916Z,63.51
2023-03-28T09:09:02.928Z,64.48
2023-03-28T09:10:03.881Z,64.89
2023-03-28T09:11:02.968Z,64.58
2023-03-28T09:12:02.961Z,63.37
2023-03-28T09:13:02.910Z,63.29
2023-03-28T09:14:03.942Z,64.71
2023-03-28T09:15:02.850Z,64.71
2023-03-28T09:16:02.903Z,64.84
2023-03-28T09:17:03.001Z,63.26
2023-03-28T09:18:02.858Z,63.50
2023-03-28T09:19:02.880Z,63.71
2023-03-28T09:20:02.785Z,62.57
2023-03-28T09:21:02.997Z,61.98
2023-03-28T09:22:14.786Z,60.94
2023-03-28T09:23:04.790Z,62.39
2023-03-28T09:24:02.792Z,63.64
2023-03-28T09:25:02.803Z,60.84
2023-03-28T09:26:02.735Z,63.43
2023-03-28T09:27:02.781Z,62.81
2023-03-28T09:28:02.749Z,63.46
2023-03-28T09:29:02.768Z,64.46
2023-03-28T09:30:02.746Z,64.67
2023-03-28T09:31:03.270Z,64.67
2023-03-28T09:32:02.714Z,63.53
2023-03-28T09:33:02.790Z,60.94
2023-03-28T09:34:02.673Z,60.22
2023-03-28T09:35:02.633Z,60.84
2023-03-28T09:36:02.811Z,60.84
2023-03-28T09:37:02.660Z,61.05
2023-03-28T09:38:02.650Z,61.64
2023-03-28T09:39:02.640Z,61.20
2023-03-28T09:40:02.579Z,61.51
2023-03-28T09:41:02.911Z,60.99
2023-03-28T09:42:02.589Z,58.51
2023-03-28T09:43:02.604Z,59.03
2023-03-28T09:44:02.578Z,61.89
2023-03-28T09:45:02.556Z,61.40
2023-03-28T09:46:02.591Z,58.38
2023-03-28T09:47:02.561Z,58.09
2023-03-28T09:48:02.659Z,58.79
2023-03-28T09:49:02.620Z,57.89
2023-03-28T09:50:12.508Z,59.23
2023-03-28T09:51:04.472Z,60.47
2023-03-28T09:52:02.542Z,60.37
2023-03-28T09:53:02.461Z,59.83
2023-03-28T09:54:02.480Z,59.20
2023-03-28T09:55:02.449Z,59.80
2023-03-28T09:56:04.741Z,58.53
2023-03-28T09:57:03.475Z,57.89
2023-03-28T09:58:02.480Z,57.29
2023-03-28T09:59:02.431Z,56.44
2023-03-28T10:00:02.416Z,56.44
2023-03-28T10:01:02.702Z,57.86
2023-03-28T10:02:02.463Z,58.58
2023-03-28T10:03:02.469Z,59.64
2023-03-28T10:04:02.434Z,57.89
2023-03-28T10:05:04.720Z,58.20
2023-03-28T10:06:02.336Z,58.53
2023-03-28T10:07:02.373Z,57.70
2023-03-28T10:08:02.435Z,58.64
2023-03-28T10:09:02.320Z,58.56
2023-03-28T10:10:02.356Z,58.76
2023-03-28T10:11:02.463Z,58.66
2023-03-28T10:12:02.327Z,57.21
2023-03-28T10:13:02.338Z,57.42
2023-03-28T10:14:02.311Z,58.97
2023-03-28T10:15:02.289Z,58.48
2023-03-28T10:16:02.289Z,57.76
2023-03-28T10:17:02.238Z,57.99
2023-03-28T10:18:02.332Z,59.31
2023-03-28T10:19:02.204Z,57.53
2023-03-28T10:20:02.201Z,58.15
2023-03-28T10:21:02.200Z,57.01
2023-03-28T10:22:02.203Z,57.63
2023-03-28T10:23:04.386Z,58.87
2023-03-28T10:24:03.212Z,58.04
2023-03-28T10:25:02.178Z,57.81
2023-03-28T10:26:02.160Z,58.50
2023-03-28T10:27:02.155Z,57.24
2023-03-28T10:28:02.135Z,56.52
2023-03-28T10:29:04.505Z,55.46
2023-03-28T10:30:03.087Z,55.57
2023-03-28T10:31:02.382Z,53.40
2023-03-28T10:32:02.063Z,57.18
2023-03-28T10:33:02.185Z,55.77
2023-03-28T10:34:02.864Z,56.90
2023-03-28T10:35:02.055Z,55.77
2023-03-28T10:36:02.180Z,57.83
2023-03-28T10:37:02.034Z,58.53
2023-03-28T10:38:02.013Z,58.11
2023-03-28T10:39:02.063Z,56.95
2023-03-28T10:40:02.049Z,56.85
2023-03-28T10:41:02.419Z,57.06
2023-03-28T10:42:02.001Z,55.54
2023-03-28T10:43:02.019Z,56.90
2023-03-28T10:44:01.961Z,55.80
2023-03-28T10:45:02.028Z,57.03
2023-03-28T10:46:02.022Z,58.27
2023-03-28T10:47:01.952Z,55.18
2023-03-28T10:48:02.048Z,55.30
2023-03-28T10:49:01.990Z,57.40
2023-03-28T10:50:02.142Z,55.72
2023-03-28T10:51:02.096Z,55.59
2023-03-28T10:52:01.886Z,53.94
2023-03-28T10:53:01.903Z,57.01
2023-03-28T10:54:01.854Z,53.61
2023-03-28T10:55:01.905Z,55.36
2023-03-28T10:56:01.868Z,54.02
2023-03-28T10:57:01.925Z,54.02
2023-03-28T10:58:01.900Z,52.66
2023-03-28T10:59:01.812Z,55.62
2023-03-28T11:00:01.838Z,51.29
2023-03-28T11:01:01.972Z,52.73
2023-03-28T11:02:01.866Z,53.53
2023-03-28T11:03:01.930Z,54.05
2023-03-28T11:04:02.041Z,51.78
2023-03-28T11:05:01.749Z,54.46
2023-03-28T11:06:09.421Z,52.61
2023-03-28T11:07:03.764Z,52.91
2023-03-28T11:08:01.897Z,55.38
2023-03-28T11:09:01.772Z,57.75
2023-03-28T11:21:36.508Z,48.58
2023-03-28T11:22:36.355Z,47.84
2023-03-28T11:23:38.039Z,50.10
2023-03-28T11:24:36.337Z,52.38
2023-03-28T11:25:36.339Z,55.36
2023-03-28T11:26:36.182Z,53.41
2023-03-28T11:27:36.230Z,53.81
2023-03-28T11:28:37.369Z,51.71
2023-03-28T11:29:43.183Z,56.93
2023-03-28T11:30:39.905Z,56.31
2023-03-28T11:31:37.331Z,56.93
2023-03-28T11:32:37.359Z,52.94
2023-03-28T11:33:37.265Z,53.43
2023-03-28T11:34:37.271Z,53.61
2023-03-28T11:35:37.325Z,53.20
2023-03-28T11:36:37.223Z,52.84
2023-03-28T11:37:38.137Z,56.57
2023-03-28T11:38:37.190Z,52.56
2023-03-28T11:39:37.174Z,53.28
2023-03-28T11:40:37.175Z,55.00
2023-03-28T11:41:37.133Z,52.01
2023-03-28T11:42:37.161Z,52.25
2023-03-28T11:43:37.114Z,50.60
2023-03-28T11:44:37.119Z,50.09
2023-03-28T11:45:50.142Z,52.45
2023-03-28T11:46:39.892Z,52.45
2023-03-28T11:47:37.155Z,50.27
2023-03-28T11:48:37.062Z,50.27
2023-03-28T11:49:37.076Z,50.24
2023-03-28T11:50:37.063Z,52.73
2023-03-28T11:51:37.792Z,52.84
2023-03-28T11:52:37.096Z,51.20
2023-03-28T12:00:04.865Z,50.56
2023-03-28T12:01:05.059Z,49.73
2023-03-28T12:02:06.357Z,53.02
2023-03-28T12:03:06.115Z,53.87
2023-03-28T12:04:06.046Z,52.76
2023-03-28T12:05:05.957Z,52.56
2023-03-28T12:06:07.255Z,51.30
2023-03-28T12:07:05.955Z,51.58
2023-03-28T12:08:05.909Z,51.89
2023-03-28T12:09:05.934Z,50.76
2023-03-28T12:10:05.931Z,52.01
2023-03-28T12:11:06.059Z,50.48
2023-03-28T12:12:05.890Z,52.09
2023-03-28T12:13:06.078Z,53.94
2023-03-28T12:14:12.157Z,53.25
2023-03-28T12:15:07.902Z,55.30
2023-03-28T12:16:05.836Z,53.33
2023-03-28T12:17:05.910Z,53.61
2023-03-28T12:18:05.955Z,50.32
2023-03-28T12:19:05.857Z,51.76
2023-03-28T12:20:05.828Z,50.92
2023-03-28T12:21:05.819Z,48.66
2023-03-28T12:22:05.774Z,52.54
2023-03-28T12:23:05.978Z,49.77
2023-03-28T12:24:05.764Z,47.38
2023-03-28T12:25:05.829Z,52.02
2023-03-28T12:26:05.765Z,48.84
2023-03-28T12:27:06.756Z,47.28
2023-03-28T12:28:05.852Z,49.74
2023-03-28T12:29:05.689Z,52.44
2023-03-28T12:30:05.756Z,52.48
2023-03-28T12:31:05.735Z,52.92
2023-03-28T12:32:05.678Z,52.17
2023-03-28T12:33:05.816Z,51.25
2023-03-28T12:34:05.658Z,50.84
2023-03-28T12:35:05.703Z,51.64
2023-03-28T12:36:05.802Z,49.40
2023-03-28T12:37:06.251Z,50.99
2023-03-28T12:38:05.841Z,51.14
2023-03-28T12:39:05.715Z,56.80
2023-03-28T12:40:05.773Z,56.59
2023-03-28T12:41:05.569Z,56.82
2023-03-28T12:42:05.610Z,57.52
2023-03-28T12:43:05.612Z,55.05
2023-03-28T12:44:05.716Z,52.27
2023-03-28T12:45:05.600Z,53.22
2023-03-28T12:46:05.660Z,57.08
2023-03-28T12:47:05.619Z,56.44
2023-03-28T12:48:05.903Z,56.95
2023-03-28T12:54:38.527Z,55.87
2023-03-28T12:55:38.616Z,53.07
2023-03-28T12:56:38.477Z,51.01
2023-03-28T12:57:38.912Z,56.57
2023-03-28T12:58:38.418Z,56.13
2023-03-28T12:59:38.356Z,57.46
2023-03-28T13:00:38.350Z,56.64
2023-03-28T13:01:39.646Z,54.79
2023-03-28T13:02:39.637Z,54.72
2023-03-28T13:03:39.574Z,55.30
2023-03-28T13:04:39.588Z,53.05
2023-03-28T13:05:39.534Z,54.72
2023-03-28T13:06:39.706Z,54.59
2023-03-28T13:07:39.497Z,51.30
2023-03-28T13:08:39.523Z,50.96
2023-03-28T13:09:39.497Z,52.71
2023-03-28T13:10:39.499Z,54.36
2023-03-28T13:11:39.474Z,50.22
2023-03-28T13:12:39.558Z,48.58
2023-03-28T13:13:39.418Z,48.66
2023-03-28T13:14:39.407Z,56.56
2023-03-28T13:15:39.422Z,54.41
2023-03-28T13:16:39.425Z,53.81
2023-03-28T13:17:39.491Z,52.89
2023-03-28T13:18:43.171Z,53.00
2023-03-28T13:19:40.403Z,49.43
2023-03-28T13:20:39.362Z,53.02
2023-03-28T13:21:39.368Z,55.59
2023-03-28T13:22:39.340Z,55.15
2023-03-28T13:23:39.338Z,53.10
2023-03-28T13:24:39.294Z,53.02
2023-03-28T13:25:39.326Z,54.05
2023-03-28T13:26:39.277Z,53.94
2023-03-28T13:27:39.337Z,53.10
2023-03-28T13:28:39.303Z,53.64
2023-03-28T13:29:39.399Z,51.84
2023-03-28T13:30:39.255Z,52.12
2023-03-28T13:31:39.240Z,53.77
2023-03-28T13:32:39.311Z,55.23
2023-03-28T13:33:39.220Z,56.38